Time;durP1;ratioP1;P1;durP2;ratioP2;P2;SDS_P1;SDS_P2;PMS_P1;PMS_P2;Temp;Humidity;BMP_temperature;BMP_pressure;BME280_temperature;BME280_humidity;BME280_pressure;Samples;Min_cycle;Max_cycle;Signal;HPM_P1;HPM_P2
2021/12/06 00:02:14;;;;;;;41.60;22.60;;;;;;;1.55;73.68;98039.60;102988;1320;99270;-75
2021/12/06 00:04:44;;;;;;;45.90;24.40;;;;;;;1.57;74.07;98033.17;103000;1319;112760;-75
2021/12/06 00:07:21;;;;;;;44.70;24.30;;;;;;;1.62;74.06;98025.21;102954;1317;99264;-75
2021/12/06 00:09:49;;;;;;;43.10;22.00;;;;;;;1.67;74.13;98029.88;102873;1319;107824;-75
2021/12/06 00:12:20;;;;;;;44.10;23.70;;;;;;;1.71;73.94;98040.30;102979;1322;99275;-75
2021/12/06 00:14:50;;;;;;;41.50;22.80;;;;;;;1.75;74.14;98043.62;102963;1318;99305;-75
2021/12/06 00:17:19;;;;;;;44.30;24.20;;;;;;;1.78;74.00;98039.07;102807;1319;113448;-75
2021/12/06 00:19:48;;;;;;;44.90;24.30;;;;;;;1.82;74.01;98042.02;102971;1319;99348;-75
2021/12/06 00:22:23;;;;;;;39.20;20.80;;;;;;;1.85;74.00;98046.75;102906;1319;107990;-75
2021/12/06 00:24:55;;;;;;;41.50;22.80;;;;;;;1.87;74.12;98048.93;102908;1318;99679;-74
2021/12/06 00:27:27;;;;;;;40.20;21.20;;;;;;;1.91;74.05;98048.20;102773;1318;99464;-74
2021/12/06 00:29:55;;;;;;;40.30;20.20;;;;;;;1.95;74.34;98050.96;102844;1318;112936;-74
2021/12/06 00:32:28;;;;;;;40.90;20.90;;;;;;;1.96;74.31;98043.39;102872;1319;99249;-77
2021/12/06 00:34:56;;;;;;;42.40;21.10;;;;;;;1.99;74.32;98041.50;102788;1321;107887;-75
2021/12/06 00:37:34;;;;;;;43.10;21.60;;;;;;;2.01;74.14;98036.15;102876;1318;99245;-74
2021/12/06 00:40:08;;;;;;;38.10;20.20;;;;;;;2.02;74.37;98035.39;102807;1318;99365;-74
2021/12/06 00:42:37;;;;;;;38.50;20.10;;;;;;;1.95;73.89;98034.52;102827;1319;112840;-74
2021/12/06 00:45:08;;;;;;;38.00;20.30;;;;;;;1.90;73.76;98039.32;102817;1318;99232;-75
2021/12/06 00:47:36;;;;;;;37.00;20.40;;;;;;;1.90;73.90;98040.21;102925;1319;107448;-74
2021/12/06 00:50:07;;;;;;;38.60;19.40;;;;;;;1.88;73.93;98038.00;102955;1318;97273;-75
2021/12/06 00:52:35;;;;;;;33.30;17.40;;;;;;;1.81;73.90;98032.79;102989;1319;99256;-74
2021/12/06 00:55:05;;;;;;;35.20;18.00;;;;;;;1.71;73.78;98036.14;102924;1318;114052;-76
2021/12/06 00:57:34;;;;;;;41.30;21.30;;;;;;;1.60;73.73;98037.23;102835;1313;99319;-77
2021/12/06 01:00:12;;;;;;;41.30;20.10;;;;;;;1.49;74.00;98045.84;102888;1318;107743;-77
2021/12/06 01:02:41;;;;;;;38.50;19.90;;;;;;;1.44;74.05;98051.87;102898;1319;99756;-76
2021/12/06 01:05:10;;;;;;;41.00;22.50;;;;;;;1.45;74.07;98050.44;102818;1317;99343;-76
2021/12/06 01:07:40;;;;;;;38.80;20.60;;;;;;;1.48;74.16;98044.79;102837;1319;112973;-77
2021/12/06 01:10:10;;;;;;;43.60;21.20;;;;;;;1.53;74.01;98044.59;102878;1321;99354;-77
2021/12/06 01:12:40;;;;;;;42.90;21.30;;;;;;;1.56;74.34;98042.17;102963;1318;108379;-77
2021/12/06 01:15:08;;;;;;;41.60;22.10;;;;;;;1.58;74.32;98031.90;102861;1319;99126;-76
2021/12/06 01:17:36;;;;;;;43.10;23.40;;;;;;;1.61;74.25;98022.48;102906;1322;99241;-76
2021/12/06 01:20:11;;;;;;;42.40;21.40;;;;;;;1.64;74.32;98026.54;102705;1326;112905;-77
2021/12/06 01:22:45;;;;;;;40.80;21.60;;;;;;;1.63;74.07;98025.19;102997;1317;99152;-75
2021/12/06 01:25:38;;;;;;;38.00;21.10;;;;;;;1.62;74.15;98016.17;103103;1316;107775;-76
2021/12/06 01:42:10;;;;;;;43.10;22.90;;;;;;;1.71;74.04;98019.18;102883;1318;99126;-75
2021/12/06 01:44:44;;;;;;;44.20;25.10;;;;;;;1.72;74.10;98032.61;102826;1319;99519;-76
2021/12/06 01:47:33;;;;;;;45.40;25.30;;;;;;;1.73;74.35;98041.45;103027;1320;113543;-75
2021/12/06 01:50:06;;;;;;;47.60;25.80;;;;;;;1.73;74.31;98042.14;103014;1319;99988;-75
2021/12/06 01:52:42;;;;;;;49.70;27.10;;;;;;;1.73;74.32;98041.80;102993;1322;107949;-76
2021/12/06 01:55:15;;;;;;;44.10;25.60;;;;;;;1.73;74.19;98046.84;102935;1319;99264;-75
2021/12/06 01:57:47;;;;;;;44.90;25.10;;;;;;;1.73;74.41;98051.23;102969;1320;99375;-76
2021/12/06 02:00:24;;;;;;;39.00;21.80;;;;;;;1.68;73.85;98065.14;103053;1322;112862;-76
2021/12/06 02:02:52;;;;;;;41.70;22.10;;;;;;;1.55;73.80;98067.90;103001;1318;98895;-75
2021/12/06 02:05:22;;;;;;;48.00;25.90;;;;;;;1.39;73.95;98066.45;102911;1321;107713;-75
2021/12/06 02:07:51;;;;;;;42.80;24.90;;;;;;;1.28;74.28;98067.85;102997;1318;99403;-75
2021/12/06 02:10:22;;;;;;;44.70;24.40;;;;;;;1.31;74.35;98060.73;103010;1318;97614;-75
2021/12/06 02:12:53;;;;;;;44.80;24.80;;;;;;;1.34;74.46;98047.84;103041;1319;113931;-76
2021/12/06 02:15:49;;;;;;;45.50;24.90;;;;;;;1.40;74.51;98045.98;103008;1318;97737;-76
2021/12/06 02:18:42;;;;;;;44.90;24.70;;;;;;;1.44;74.57;98044.36;102969;1322;107864;-76
2021/12/06 02:21:20;;;;;;;44.20;23.60;;;;;;;1.48;74.46;98038.73;102884;1323;99901;-76
2021/12/06 02:23:48;;;;;;;44.90;23.90;;;;;;;1.52;74.60;98030.65;102988;1319;99945;-76
2021/12/06 02:26:20;;;;;;;44.70;25.80;;;;;;;1.55;74.41;98030.14;102968;1318;112848;-74
2021/12/06 02:28:51;;;;;;;46.90;26.30;;;;;;;1.58;74.56;98020.23;103058;1318;98025;-75
2021/12/06 02:31:23;;;;;;;56.60;31.40;;;;;;;1.59;74.46;98019.98;102993;1319;107925;-75
2021/12/06 02:33:54;;;;;;;55.60;31.00;;;;;;;1.62;74.41;98022.96;103028;1318;99368;-76
2021/12/06 02:36:24;;;;;;;57.30;32.70;;;;;;;1.63;74.50;98022.56;103042;1317;98695;-76
2021/12/06 02:38:51;;;;;;;56.10;31.80;;;;;;;1.64;74.66;98019.36;102956;1319;112830;-76
2021/12/06 02:41:20;;;;;;;58.10;32.20;;;;;;;1.65;74.24;98020.53;102919;1318;97803;-76
2021/12/06 02:43:51;;;;;;;58.80;33.20;;;;;;;1.65;74.48;98019.11;102954;1319;107876;-76
2021/12/06 02:46:21;;;;;;;57.70;33.60;;;;;;;1.66;74.64;98021.17;102947;1319;99356;-78
2021/12/06 02:48:49;;;;;;;57.10;32.90;;;;;;;1.68;74.27;98031.73;103000;1318;97404;-75
2021/12/06 02:51:18;;;;;;;59.10;34.10;;;;;;;1.68;74.52;98033.30;102929;1320;112672;-75
2021/12/06 02:53:50;;;;;;;57.20;32.90;;;;;;;1.69;74.33;98039.54;102879;1319;99239;-74
2021/12/06 02:56:51;;;;;;;59.20;34.90;;;;;;;1.70;74.65;98041.41;102821;1318;141755;-75
2021/12/06 02:59:11;;;;;;;60.10;33.30;;;;;;;1.71;74.49;98039.63;102923;1322;99273;-75
2021/12/06 03:01:44;;;;;;;57.50;33.30;;;;;;;1.72;74.25;98038.36;102891;1317;99238;-76
2021/12/06 03:04:15;;;;;;;61.70;34.50;;;;;;;1.73;74.42;98036.40;102955;1318;113553;-77
2021/12/06 03:06:47;;;;;;;62.80;35.00;;;;;;;1.73;74.55;98032.70;103023;1318;99328;-77
2021/12/06 03:09:18;;;;;;;58.90;33.00;;;;;;;1.74;74.45;98034.06;103079;1320;107700;-77
2021/12/06 03:12:03;;;;;;;66.80;36.00;;;;;;;1.73;74.54;98034.79;102873;1319;99387;-77
2021/12/06 03:14:38;;;;;;;65.50;36.50;;;;;;;1.74;74.52;98028.80;103029;1319;99227;-77
2021/12/06 03:17:11;;;;;;;68.80;37.50;;;;;;;1.75;74.29;98031.73;102812;1322;112964;-77
2021/12/06 03:19:41;;;;;;;74.30;40.70;;;;;;;1.75;74.42;98030.15;102883;1325;99367;-77
2021/12/06 03:22:12;;;;;;;71.80;39.70;;;;;;;1.75;74.54;98027.55;102914;1319;107849;-78
2021/12/06 03:24:45;;;;;;;75.80;42.00;;;;;;;1.74;74.50;98025.11;102933;1319;99202;-77
2021/12/06 03:27:17;;;;;;;73.20;40.00;;;;;;;1.74;74.36;98023.02;102976;1322;99397;-77
2021/12/06 03:29:47;;;;;;;80.50;43.40;;;;;;;1.74;74.26;98029.66;102930;1318;113536;-75
2021/12/06 03:32:19;;;;;;;77.60;40.60;;;;;;;1.74;74.25;98030.37;102961;1318;97385;-76
2021/12/06 03:34:47;;;;;;;73.50;42.20;;;;;;;1.74;74.55;98032.48;102883;1319;107916;-74
2021/12/06 03:37:15;;;;;;;74.70;40.20;;;;;;;1.74;74.64;98034.75;102945;1318;97356;-75
2021/12/06 03:39:49;;;;;;;78.90;44.70;;;;;;;1.74;74.21;98037.00;102948;1321;99267;-74
2021/12/06 03:42:23;;;;;;;80.00;46.30;;;;;;;1.74;74.43;98036.66;103000;1319;113358;-74
2021/12/06 03:44:54;;;;;;;78.60;45.60;;;;;;;1.74;74.30;98033.52;102978;1319;99313;-75
2021/12/06 03:47:29;;;;;;;84.90;46.90;;;;;;;1.74;74.46;98027.23;102946;1318;107889;-74
2021/12/06 03:50:00;;;;;;;83.00;47.20;;;;;;;1.74;74.48;98026.52;102911;1319;99325;-75
2021/12/06 03:52:31;;;;;;;85.60;50.20;;;;;;;1.75;74.28;98030.32;103028;1319;99260;-76
2021/12/06 03:54:59;;;;;;;92.50;51.40;;;;;;;1.75;74.43;98032.08;103034;1319;112561;-74
2021/12/06 03:57:27;;;;;;;98.20;54.40;;;;;;;1.76;74.34;98027.66;102943;1323;99262;-76
2021/12/06 03:59:55;;;;;;;97.10;55.00;;;;;;;1.75;74.28;98016.69;102956;1323;107947;-75
2021/12/06 04:02:30;;;;;;;99.90;53.80;;;;;;;1.75;74.32;98015.64;102992;1319;99218;-76
2021/12/06 04:04:59;;;;;;;91.20;54.70;;;;;;;1.76;74.50;98019.25;103098;1319;99233;-76
2021/12/06 04:07:27;;;;;;;98.20;55.50;;;;;;;1.77;74.54;98017.30;103021;1322;112810;-75
2021/12/06 04:09:55;;;;;;;105.80;58.20;;;;;;;1.76;74.65;98019.08;102995;1319;99160;-74
2021/12/06 04:12:22;;;;;;;106.60;59.10;;;;;;;1.75;74.40;98022.27;102985;1319;107781;-75
2021/12/06 04:14:51;;;;;;;101.10;58.30;;;;;;;1.74;74.58;98020.04;102877;1319;99268;-74
2021/12/06 04:17:23;;;;;;;99.40;59.20;;;;;;;1.75;74.48;98027.02;102891;1321;99236;-75
2021/12/06 04:19:53;;;;;;;107.70;58.20;;;;;;;1.75;74.36;98032.08;102929;1319;112891;-76
2021/12/06 04:22:21;;;;;;;104.20;59.50;;;;;;;1.75;74.41;98033.80;102845;1319;96642;-77
2021/12/06 04:24:51;;;;;;;105.20;58.50;;;;;;;1.75;74.73;98036.10;102949;1320;107949;-76
2021/12/06 04:27:21;;;;;;;102.00;57.80;;;;;;;1.74;74.37;98038.39;102884;1319;100766;-72
2021/12/06 04:29:53;;;;;;;107.70;62.80;;;;;;;1.74;74.38;98040.16;102969;1319;98345;-76
2021/12/06 04:32:25;;;;;;;99.60;55.10;;;;;;;1.73;74.44;98043.73;103055;1319;112930;-76
2021/12/06 04:34:53;;;;;;;92.20;53.00;;;;;;;1.71;74.49;98046.45;103005;1319;99837;-74
2021/12/06 04:37:21;;;;;;;97.10;54.50;;;;;;;1.70;74.26;98054.00;103026;1318;108207;-77
2021/12/06 04:39:49;;;;;;;96.30;55.20;;;;;;;1.69;74.63;98058.27;102905;1318;99868;-75
2021/12/06 04:42:20;;;;;;;96.60;56.40;;;;;;;1.67;74.59;98051.73;102957;1319;99265;-75
2021/12/06 04:44:48;;;;;;;97.50;54.80;;;;;;;1.66;74.62;98049.67;102955;1319;112788;-75
2021/12/06 04:47:18;;;;;;;101.50;57.00;;;;;;;1.67;74.41;98054.33;102910;1322;99233;-74
2021/12/06 04:49:46;;;;;;;100.50;57.20;;;;;;;1.68;74.75;98052.70;102781;1317;109182;-75
2021/12/06 04:52:21;;;;;;;97.30;57.10;;;;;;;1.65;74.47;98053.04;102808;1320;99340;-75
2021/12/06 04:54:59;;;;;;;89.50;53.50;;;;;;;1.66;74.33;98060.35;102865;1319;99841;-74
2021/12/06 04:57:42;;;;;;;99.80;55.70;;;;;;;1.67;74.61;98065.17;102842;1318;113238;-74
2021/12/06 05:00:24;;;;;;;98.80;54.90;;;;;;;1.68;74.64;98065.66;102952;1318;99303;-76
2021/12/06 05:02:54;;;;;;;95.10;54.20;;;;;;;1.69;74.68;98077.85;102732;1322;106857;-75
2021/12/06 05:05:34;;;;;;;97.50;56.70;;;;;;;1.70;74.31;98086.88;102782;1319;96741;-75
2021/12/06 05:08:09;;;;;;;99.20;57.20;;;;;;;1.72;74.48;98090.98;102866;1318;99233;-78
2021/12/06 05:10:38;;;;;;;92.30;51.80;;;;;;;1.73;74.58;98086.39;102674;1319;111638;-77
2021/12/06 05:13:07;;;;;;;97.10;57.00;;;;;;;1.74;74.60;98080.73;102839;1321;99256;-77
2021/12/06 05:15:37;;;;;;;103.70;58.00;;;;;;;1.75;74.68;98072.29;102825;1317;107903;-77
2021/12/06 05:18:06;;;;;;;98.10;55.70;;;;;;;1.75;74.50;98078.19;102827;1319;99438;-75
2021/12/06 05:20:36;;;;;;;96.50;55.20;;;;;;;1.76;74.63;98078.36;102983;1318;99389;-75
2021/12/06 05:23:08;;;;;;;103.50;59.50;;;;;;;1.76;74.58;98077.63;102883;1317;112835;-76
2021/12/06 05:25:37;;;;;;;103.60;57.10;;;;;;;1.76;74.67;98079.02;102931;1317;99208;-74
2021/12/06 05:28:09;;;;;;;99.10;56.60;;;;;;;1.76;74.62;98079.58;102939;1322;107885;-77
2021/12/06 05:30:40;;;;;;;96.90;55.50;;;;;;;1.75;74.80;98077.34;102895;1322;99270;-75
2021/12/06 05:33:17;;;;;;;103.10;57.60;;;;;;;1.76;74.76;98080.44;102766;1319;97351;-75
2021/12/06 05:35:45;;;;;;;103.50;57.50;;;;;;;1.77;74.79;98076.39;102757;1322;113396;-75
2021/12/06 05:38:13;;;;;;;104.30;58.50;;;;;;;1.77;74.54;98077.61;102943;1322;99242;-75
2021/12/06 05:40:43;;;;;;;112.80;60.90;;;;;;;1.76;74.56;98080.43;102962;1319;107929;-75
2021/12/06 05:43:15;;;;;;;111.40;61.10;;;;;;;1.77;74.85;98079.35;102974;1320;99235;-75
2021/12/06 05:45:42;;;;;;;100.60;56.70;;;;;;;1.77;74.64;98077.73;103065;1319;99338;-74
2021/12/06 05:48:10;;;;;;;109.70;58.40;;;;;;;1.78;74.55;98078.05;103158;1319;112678;-75
2021/12/06 05:50:39;;;;;;;104.20;57.90;;;;;;;1.79;74.86;98076.09;103041;1318;99377;-76
2021/12/06 05:53:07;;;;;;;100.50;57.60;;;;;;;1.80;74.91;98075.19;102833;1318;107885;-76
2021/12/06 05:55:35;;;;;;;104.90;58.60;;;;;;;1.81;74.57;98074.81;102979;1317;99258;-77
2021/12/06 05:58:09;;;;;;;113.50;61.60;;;;;;;1.81;74.66;98070.92;102937;1318;99372;-76
2021/12/06 06:00:38;;;;;;;;;;;;;;;1.80;74.69;98069.95;102966;1316;115112;-76
2021/12/06 06:03:09;;;;;;;104.50;58.40;;;;;;;1.77;74.69;98070.77;102912;1323;99358;-77
2021/12/06 06:05:40;;;;;;;107.80;57.90;;;;;;;1.80;74.78;98059.82;103024;1317;107884;-76
2021/12/06 06:08:12;;;;;;;99.70;52.40;;;;;;;1.81;74.75;98057.13;102926;1319;97823;-76
2021/12/06 06:10:40;;;;;;;96.50;53.00;;;;;;;1.81;74.80;98064.33;102947;1319;96890;-76
2021/12/06 06:13:10;;;;;;;107.20;55.60;;;;;;;1.81;74.75;98075.46;102820;1321;112930;-76
2021/12/06 06:15:38;;;;;;;94.60;53.80;;;;;;;1.82;74.66;98088.88;102983;1318;99279;-75
2021/12/06 06:18:07;;;;;;;90.20;49.10;;;;;;;1.82;74.90;98090.26;102999;1318;107767;-75
2021/12/06 06:20:42;;;;;;;90.60;49.00;;;;;;;1.83;74.83;98101.23;102955;1318;99349;-75
2021/12/06 06:23:12;;;;;;;88.30;50.60;;;;;;;1.80;74.76;98101.02;102804;1318;99388;-75
2021/12/06 06:25:40;;;;;;;89.20;48.90;;;;;;;1.80;74.92;98101.76;102923;1318;112864;-77
2021/12/06 06:28:11;;;;;;;91.50;49.60;;;;;;;1.81;74.50;98105.23;102971;1318;99340;-77
2021/12/06 06:30:39;;;;;;;85.10;48.70;;;;;;;1.81;74.54;98109.06;102591;1321;107956;-75
2021/12/06 06:33:10;;;;;;;95.00;53.10;;;;;;;1.81;74.87;98112.20;102628;1321;99494;-75
2021/12/06 06:35:38;;;;;;;93.70;50.90;;;;;;;1.81;74.68;98112.51;102812;1318;99317;-75
2021/12/06 06:38:06;;;;;;;95.80;53.90;;;;;;;1.82;74.54;98116.35;102815;1319;112922;-75
2021/12/06 06:40:35;;;;;;;93.70;53.70;;;;;;;1.81;74.75;98122.13;102876;1318;97339;-74
2021/12/06 06:43:04;;;;;;;96.30;51.40;;;;;;;1.79;74.77;98129.05;102823;1324;107712;-76
2021/12/06 06:45:36;;;;;;;90.70;50.20;;;;;;;1.77;74.71;98129.34;102892;1322;99141;-76
2021/12/06 06:48:07;;;;;;;91.80;51.40;;;;;;;1.78;74.64;98134.15;102939;1318;99326;-75
2021/12/06 06:50:35;;;;;;;95.00;54.10;;;;;;;1.79;74.74;98135.89;102856;1318;112834;-76
2021/12/06 06:53:03;;;;;;;94.50;51.60;;;;;;;1.79;74.60;98135.69;102876;1319;99368;-76
2021/12/06 06:55:34;;;;;;;94.70;52.30;;;;;;;1.81;74.68;98139.11;102899;1324;106461;-76
2021/12/06 06:58:02;;;;;;;89.60;50.80;;;;;;;1.82;75.03;98149.02;102967;1323;99357;-76
2021/12/06 07:00:34;;;;;;;91.70;50.60;;;;;;;1.83;75.00;98144.08;102781;1318;99229;-76
2021/12/06 07:03:08;;;;;;;90.40;50.10;;;;;;;1.84;75.10;98150.81;102898;1318;112832;-76
2021/12/06 07:05:38;;;;;;;90.60;50.00;;;;;;;1.85;74.82;98151.66;102900;1319;99098;-76
2021/12/06 07:08:06;;;;;;;93.50;51.10;;;;;;;1.85;74.89;98154.97;102965;1320;106319;-76
2021/12/06 07:10:34;;;;;;;89.60;49.10;;;;;;;1.86;75.02;98153.71;102937;1318;99414;-77
2021/12/06 07:13:07;;;;;;;93.40;51.80;;;;;;;1.87;75.05;98153.46;102884;1322;96726;-75
2021/12/06 07:15:37;;;;;;;97.20;52.00;;;;;;;1.87;75.00;98151.70;102863;1319;112991;-77
2021/12/06 07:18:06;;;;;;;94.20;57.70;;;;;;;1.87;75.02;98148.91;103015;1320;99241;-77
2021/12/06 07:20:35;;;;;;;101.40;54.40;;;;;;;1.88;74.94;98149.20;102966;1322;107674;-75
2021/12/06 07:23:04;;;;;;;96.30;54.80;;;;;;;1.88;75.21;98155.14;102879;1322;99359;-75
2021/12/06 07:25:34;;;;;;;94.10;54.10;;;;;;;1.89;74.80;98160.00;102873;1323;100135;-75
2021/12/06 07:28:08;;;;;;;115.30;64.00;;;;;;;1.89;74.91;98161.91;102970;1322;113019;-76
2021/12/06 07:30:36;;;;;;;117.50;67.50;;;;;;;1.89;74.89;98157.23;102662;1318;99279;-76
2021/12/06 07:33:04;;;;;;;111.20;64.90;;;;;;;1.87;74.93;98159.20;102634;1323;106840;-77
2021/12/06 07:35:34;;;;;;;107.00;63.20;;;;;;;1.86;74.81;98159.29;102969;1318;97785;-76
2021/12/06 07:38:06;;;;;;;100.90;57.30;;;;;;;1.87;74.78;98152.44;102900;1319;100310;-77
2021/12/06 07:40:35;;;;;;;97.70;54.70;;;;;;;1.86;75.04;98146.14;102765;1319;112861;-77
2021/12/06 07:43:03;;;;;;;91.50;53.60;;;;;;;1.87;74.84;98150.85;102811;1319;99266;-76
2021/12/06 07:45:31;;;;;;;90.90;53.20;;;;;;;1.88;74.90;98151.51;102807;1322;109502;-77
2021/12/06 07:47:59;;;;;;;94.10;55.90;;;;;;;1.88;74.68;98152.36;102844;1324;98070;-76
2021/12/06 07:50:29;;;;;;;92.10;53.90;;;;;;;1.88;75.07;98154.98;102828;1319;99343;-77
2021/12/06 07:52:57;;;;;;;88.00;54.10;;;;;;;1.88;74.91;98153.77;102769;1318;113311;-76
2021/12/06 07:55:31;;;;;;;86.80;50.50;;;;;;;1.88;74.84;98156.91;102880;1319;99325;-76
2021/12/06 07:58:10;;;;;;;79.20;46.40;;;;;;;1.88;75.05;98161.27;102896;1318;107465;-77
2021/12/06 08:00:44;;;;;;;89.60;49.70;;;;;;;1.90;74.95;98160.14;102879;1319;99243;-77
2021/12/06 08:03:15;;;;;;;84.80;47.70;;;;;;;1.89;74.86;98152.48;102798;1324;98455;-76
2021/12/06 08:05:45;;;;;;;78.60;47.40;;;;;;;1.89;74.69;98149.16;102974;1324;112458;-76
2021/12/06 08:08:34;;;;;;;83.60;47.80;;;;;;;1.91;74.98;98145.93;102979;1324;99291;-77
2021/12/06 08:11:11;;;;;;;89.50;49.60;;;;;;;1.92;74.74;98142.55;102745;1323;107476;-76
2021/12/06 08:13:45;;;;;;;89.00;50.20;;;;;;;1.92;75.13;98144.79;102782;1317;99374;-76
2021/12/06 08:16:18;;;;;;;89.70;51.40;;;;;;;1.94;75.33;98145.95;102822;1324;99144;-78
2021/12/06 08:18:48;;;;;;;81.90;47.40;;;;;;;1.95;75.06;98154.82;102845;1319;111467;-76
2021/12/06 08:21:20;;;;;;;83.50;48.70;;;;;;;1.96;74.89;98154.29;102854;1322;99244;-76
2021/12/06 08:23:51;;;;;;;82.20;46.10;;;;;;;1.96;75.04;98152.30;102766;1323;107919;-77
2021/12/06 08:26:24;;;;;;;79.10;45.30;;;;;;;1.97;74.73;98155.93;102892;1319;99315;-76
2021/12/06 08:28:55;;;;;;;86.40;47.80;;;;;;;1.97;75.15;98156.09;102839;1323;99255;-77
2021/12/06 08:31:27;;;;;;;85.30;48.60;;;;;;;1.97;74.93;98155.40;102699;1320;112875;-77
2021/12/06 08:33:57;;;;;;;85.30;49.00;;;;;;;1.98;75.11;98155.55;102802;1323;99392;-75
2021/12/06 08:36:27;;;;;;;89.50;49.80;;;;;;;1.99;74.99;98155.48;102806;1320;107860;-77
2021/12/06 08:38:56;;;;;;;83.70;49.50;;;;;;;2.01;74.91;98162.22;102898;1317;99230;-78
2021/12/06 08:41:29;;;;;;;84.30;45.30;;;;;;;2.02;75.06;98163.73;102906;1319;99995;-77
2021/12/06 08:44:01;;;;;;;84.90;47.70;;;;;;;2.01;74.99;98165.16;102816;1321;112866;-77
2021/12/06 08:46:35;;;;;;;88.20;46.60;;;;;;;2.00;75.03;98162.60;103019;1318;99309;-76
2021/12/06 08:49:05;;;;;;;87.50;48.00;;;;;;;2.00;74.97;98163.11;102883;1319;106856;-76
2021/12/06 08:51:54;;;;;;;88.40;46.40;;;;;;;2.00;75.04;98167.87;102883;1324;99123;-76
2021/12/06 08:54:29;;;;;;;83.80;45.00;;;;;;;1.98;74.98;98174.25;102911;1318;100105;-77
2021/12/06 08:57:00;;;;;;;87.30;44.90;;;;;;;1.95;75.05;98176.30;102901;1319;112855;-76
2021/12/06 08:59:30;;;;;;;84.80;46.70;;;;;;;1.95;74.94;98177.04;102757;1321;99956;-75
2021/12/06 09:01:59;;;;;;;90.00;48.10;;;;;;;1.94;75.00;98178.83;102750;1319;106526;-76
2021/12/06 09:04:47;;;;;;;85.80;46.00;;;;;;;1.94;74.94;98181.10;102668;1319;99184;-78
2021/12/06 09:07:19;;;;;;;82.30;44.50;;;;;;;1.94;75.04;98181.25;102753;1321;99275;-77
2021/12/06 09:09:49;;;;;;;85.30;45.20;;;;;;;1.96;74.87;98181.20;102940;1320;113377;-77
2021/12/06 09:12:24;;;;;;;94.40;49.80;;;;;;;1.96;74.81;98179.23;102928;1320;99249;-77
2021/12/06 09:14:59;;;;;;;118.40;59.10;;;;;;;1.98;74.96;98182.83;102883;1319;107725;-76
2021/12/06 09:17:30;;;;;;;130.40;66.80;;;;;;;1.98;74.87;98185.93;102886;1322;99282;-76
2021/12/06 09:19:58;;;;;;;121.30;62.70;;;;;;;2.00;75.07;98180.64;102846;1319;99226;-75
2021/12/06 09:22:26;;;;;;;96.10;54.00;;;;;;;2.00;75.15;98183.05;102773;1320;112930;-76
2021/12/06 09:24:53;;;;;;;98.80;53.10;;;;;;;2.01;74.81;98188.05;102704;1323;99288;-76
2021/12/06 09:27:21;;;;;;;106.60;58.90;;;;;;;2.02;75.24;98181.73;102911;1319;105635;-77
2021/12/06 09:29:50;;;;;;;118.60;66.90;;;;;;;2.02;74.93;98190.13;102829;1320;99380;-77
2021/12/06 09:32:18;;;;;;;120.90;68.20;;;;;;;2.03;75.15;98189.57;103075;1317;96954;-78
2021/12/06 09:34:47;;;;;;;108.50;60.90;;;;;;;2.04;74.92;98188.10;102976;1319;113110;-76
2021/12/06 09:37:16;;;;;;;110.40;60.20;;;;;;;2.04;74.95;98182.32;103024;1325;99388;-76
2021/12/06 09:39:45;;;;;;;97.30;55.40;;;;;;;2.05;74.92;98186.81;102889;1323;107823;-75
2021/12/06 09:42:18;;;;;;;96.60;52.50;;;;;;;2.05;74.83;98191.02;102828;1319;97286;-77
2021/12/06 09:44:51;;;;;;;86.00;48.20;;;;;;;2.06;75.12;98187.30;103015;1325;99373;-77
2021/12/06 09:47:18;;;;;;;87.00;49.30;;;;;;;2.07;75.01;98185.49;103051;1324;113341;-77
2021/12/06 09:49:46;;;;;;;78.40;47.40;;;;;;;2.07;75.46;98182.85;102866;1316;99285;-77
2021/12/06 09:52:15;;;;;;;76.40;44.50;;;;;;;2.08;75.02;98188.20;102881;1323;107929;-76
2021/12/06 09:54:45;;;;;;;76.30;42.80;;;;;;;2.10;75.27;98189.04;102962;1322;99868;-76
2021/12/06 09:57:13;;;;;;;81.00;46.20;;;;;;;2.10;74.97;98191.44;102920;1320;99232;-76
2021/12/06 09:59:46;;;;;;;73.80;42.40;;;;;;;2.11;75.21;98184.77;102850;1319;112964;-76
2021/12/06 10:02:17;;;;;;;83.00;47.30;;;;;;;2.11;74.93;98184.75;102894;1323;99190;-75
2021/12/06 10:04:55;;;;;;;77.90;46.60;;;;;;;2.12;74.95;98188.39;102895;1322;107828;-76
2021/12/06 10:07:28;;;;;;;75.70;43.60;;;;;;;2.13;74.86;98190.27;103009;1320;99342;-77
2021/12/06 10:09:57;;;;;;;78.70;46.40;;;;;;;2.13;75.15;98183.80;103039;1319;97733;-76
2021/12/06 10:12:34;;;;;;;80.40;47.00;;;;;;;2.12;75.12;98179.80;103086;1319;112840;-76
2021/12/06 10:15:05;;;;;;;81.80;45.50;;;;;;;2.13;75.08;98180.83;103039;1319;99372;-77
2021/12/06 10:17:34;;;;;;;74.70;42.30;;;;;;;2.11;75.08;98176.53;102972;1323;107835;-75
2021/12/06 10:20:09;;;;;;;73.90;41.30;;;;;;;2.07;74.85;98174.45;102980;1317;99301;-77
2021/12/06 10:22:38;;;;;;;68.60;40.20;;;;;;;2.07;74.95;98171.15;102958;1325;99386;-76
2021/12/06 10:25:07;;;;;;;69.30;41.80;;;;;;;2.07;74.87;98166.42;102970;1319;112891;-76
2021/12/06 10:28:04;;;;;;;64.40;38.70;;;;;;;2.09;75.31;98169.14;104582;1318;97390;-76
2021/12/06 10:30:44;;;;;;;65.10;38.40;;;;;;;2.09;75.48;98170.52;103801;1319;109619;-77
2021/12/06 10:33:16;;;;;;;65.80;39.10;;;;;;;2.09;75.06;98168.78;102839;1319;97344;-76
2021/12/06 10:35:49;;;;;;;64.90;38.60;;;;;;;2.09;75.13;98166.69;102892;1319;99270;-77
2021/12/06 10:38:22;;;;;;;62.10;36.50;;;;;;;2.10;74.79;98164.02;102839;1317;112871;-76
2021/12/06 10:41:00;;;;;;;64.30;37.90;;;;;;;2.10;75.04;98160.86;102885;1323;96793;-77
2021/12/06 10:43:31;;;;;;;62.00;37.90;;;;;;;2.10;74.84;98158.06;102879;1323;107958;-76
2021/12/06 10:46:07;;;;;;;60.60;36.20;;;;;;;2.10;74.78;98160.30;102917;1317;99216;-76
2021/12/06 10:48:42;;;;;;;62.70;35.10;;;;;;;2.12;75.25;98158.64;102961;1320;99250;-77
2021/12/06 10:51:20;;;;;;;59.70;34.20;;;;;;;2.14;75.08;98153.66;102923;1318;112880;-76
2021/12/06 10:54:05;;;;;;;59.80;36.90;;;;;;;2.14;75.05;98148.74;102878;1317;99255;-77
2021/12/06 10:56:43;;;;;;;60.70;37.90;;;;;;;2.14;75.17;98145.23;102777;1325;149131;-77
2021/12/06 10:59:12;;;;;;;66.60;37.40;;;;;;;2.15;75.23;98145.55;103020;1322;98193;-75
2021/12/06 11:01:42;;;;;;;68.10;40.60;;;;;;;2.15;75.32;98141.70;103091;1320;99334;-76
2021/12/06 11:04:19;;;;;;;75.20;43.50;;;;;;;2.13;75.09;98139.17;103042;1319;113795;-76
2021/12/06 11:06:54;;;;;;;63.80;36.50;;;;;;;2.12;74.95;98136.44;102991;1323;99911;-76
2021/12/06 11:09:27;;;;;;;73.00;44.40;;;;;;;2.12;75.07;98135.24;102803;1320;107916;-77
2021/12/06 11:12:04;;;;;;;69.90;43.10;;;;;;;2.10;74.97;98136.52;103006;1322;99221;-76
2021/12/06 11:14:36;;;;;;;72.70;44.00;;;;;;;2.10;75.14;98138.98;102926;1317;99050;-76
2021/12/06 11:17:13;;;;;;;66.90;42.10;;;;;;;2.11;75.06;98138.95;102865;1320;112674;-77
2021/12/06 11:19:41;;;;;;;67.60;42.20;;;;;;;2.11;74.89;98132.65;102954;1319;99366;-77
2021/12/06 11:22:18;;;;;;;67.10;41.30;;;;;;;2.10;75.20;98130.60;102970;1318;106712;-77
2021/12/06 11:24:51;;;;;;;62.40;39.30;;;;;;;2.09;74.77;98130.11;102862;1319;97974;-76
2021/12/06 11:27:28;;;;;;;61.20;39.60;;;;;;;2.09;75.11;98129.58;102894;1320;99220;-75
2021/12/06 11:30:11;;;;;;;61.00;36.30;;;;;;;2.08;74.86;98132.63;102897;1316;112985;-78
2021/12/06 11:32:48;;;;;;;66.60;40.50;;;;;;;2.03;74.86;98123.46;102893;1319;99330;-76
2021/12/06 11:35:24;;;;;;;63.20;38.10;;;;;;;2.03;74.90;98122.73;102884;1319;107633;-77
2021/12/06 11:38:01;;;;;;;60.40;37.40;;;;;;;2.04;75.20;98127.77;102920;1324;96752;-76
2021/12/06 11:40:35;;;;;;;62.00;37.60;;;;;;;2.04;75.05;98119.20;102918;1323;99342;-76
2021/12/06 11:43:07;;;;;;;64.60;39.90;;;;;;;2.05;75.11;98119.85;102894;1319;112925;-76
2021/12/06 11:45:53;;;;;;;68.90;41.10;;;;;;;2.04;75.34;98119.00;102923;1318;99120;-75
2021/12/06 11:48:35;;;;;;;66.40;40.20;;;;;;;2.02;75.12;98120.35;102862;1318;105551;-76
2021/12/06 11:51:11;;;;;;;;;;;;;;;2.02;75.02;98127.66;102866;1319;99264;-76